^^
Station Historical Data
Daily Summary for February 10, 2018 Units:  Both    English   Metric
« Previous Day
Next Day »
Daily Weekly Monthly Yearly Custom
  High: Low: Average:
Temperature: TemperatureF °F /  -17.8 °C 61.0 °F /  16.1 °C 66.4 °F /  19.1 °C
Dew Point: DewpointF °F /  -17.8 °C 50.9 °F /  10.5 °C 55.1 °F /  12.8 °C
Humidity: Humidity% 50% 67%
Wind Speed: WindSpeedMPHmph /  0km/h - -12.6mph /  -20.3km/h
Wind Gust: WindSpeedGustMPHmph /  0km/h - -
Wind- -
Pressure: PressureIn in /  0 hPa 29.60 in /  1002.3 hPa -
Precipitation: 0.01 in /  0.25 mm    
Historical Graphs
 
 
Tabular Data for February 10, 2018
Time Temperature Dew Point Pressure Wind Wind Speed Wind Gust Humidity Rainfall Rate (Hourly) solar Conditions
TemperatureF °F /  -17.8 °C DewpointF °F /  -17.8 °C PressureInin /  0hPa Calm     Humidity% HourlyPrecipInin /  0mm SoftwareType W/m2 Conditions
07:58 61.0 °F /  16.1 °C 56.1 °F /  13.4 °C 29.65in /  1003.9hPa North -999.9mph /  -1609.1km/h -999.0mph /  -1607.7km/h 84% 0.00in /  0mm meteobridge W/m2
08:04 61.3 °F /  16.3 °C 56.1 °F /  13.4 °C 29.65in /  1003.9hPa NNE 6.0mph /  9.7km/h 16.0mph /  25.7km/h 83% 0.00in /  0mm meteobridge W/m2
08:11 61.5 °F /  16.4 °C 55.9 °F /  13.3 °C 29.65in /  1003.9hPa NNE 6.0mph /  9.7km/h 13.0mph /  20.9km/h 82% 0.00in /  0mm meteobridge W/m2
08:16 62.2 °F /  16.8 °C 56.3 °F /  13.5 °C 29.66in /  1004.3hPa NNE 11.0mph /  17.7km/h 13.0mph /  20.9km/h 81% 0.00in /  0mm meteobridge W/m2
08:23 63.0 °F /  17.2 °C 56.3 °F /  13.5 °C 29.66in /  1004.3hPa North 6.9mph /  11.1km/h 15.0mph /  24.1km/h 79% 0.00in /  0mm meteobridge W/m2
08:29 63.7 °F /  17.6 °C 56.3 °F /  13.5 °C 29.66in /  1004.3hPa NNE 6.0mph /  9.7km/h 13.0mph /  20.9km/h 77% 0.00in /  0mm meteobridge W/m2
08:35 64.2 °F /  17.9 °C 56.5 °F /  13.6 °C 29.66in /  1004.3hPa North 8.9mph /  14.3km/h 12.0mph /  19.3km/h 76% 0.00in /  0mm meteobridge W/m2
08:41 64.8 °F /  18.2 °C 56.7 °F /  13.7 °C 29.66in /  1004.3hPa North 8.9mph /  14.3km/h 13.0mph /  20.9km/h 75% 0.00in /  0mm meteobridge W/m2
08:47 64.9 °F /  18.3 °C 56.5 °F /  13.6 °C 29.66in /  1004.3hPa NNE 11.0mph /  17.7km/h 13.0mph /  20.9km/h 74% 0.00in /  0mm meteobridge W/m2
08:53 65.1 °F /  18.4 °C 56.3 °F /  13.5 °C 29.67in /  1004.6hPa North 6.0mph /  9.7km/h 12.0mph /  19.3km/h 73% 0.00in /  0mm meteobridge W/m2
08:59 65.1 °F /  18.4 °C 55.9 °F /  13.3 °C 29.67in /  1004.6hPa North 10.1mph /  16.3km/h 11.0mph /  17.7km/h 72% 0.00in /  0mm meteobridge W/m2
09:05 65.1 °F /  18.4 °C 55.4 °F /  13 °C 29.67in /  1004.6hPa NNW 8.9mph /  14.3km/h 16.0mph /  25.7km/h 71% 0.00in /  0mm meteobridge W/m2
09:12 65.5 °F /  18.6 °C 55.8 °F /  13.2 °C 29.67in /  1004.6hPa North 4.0mph /  6.4km/h 11.0mph /  17.7km/h 71% 0.00in /  0mm meteobridge W/m2
09:18 65.7 °F /  18.7 °C 55.6 °F /  13.1 °C 29.67in /  1004.6hPa North 4.9mph /  7.9km/h 14.0mph /  22.5km/h 70% 0.00in /  0mm meteobridge W/m2
09:24 66.0 °F /  18.9 °C 55.6 °F /  13.1 °C 29.67in /  1004.6hPa NNE 2.9mph /  4.7km/h 11.0mph /  17.7km/h 69% 0.00in /  0mm meteobridge W/m2
09:30 66.2 °F /  19 °C 56.1 °F /  13.4 °C 29.67in /  1004.6hPa NNW 4.0mph /  6.4km/h 12.0mph /  19.3km/h 70% 0.00in /  0mm meteobridge W/m2
09:36 66.4 °F /  19.1 °C 56.3 °F /  13.5 °C 29.67in /  1004.6hPa North 8.1mph /  13km/h 10.0mph /  16.1km/h 70% 0.00in /  0mm meteobridge W/m2
09:42 66.2 °F /  19 °C 55.8 °F /  13.2 °C 29.67in /  1004.6hPa North 4.0mph /  6.4km/h 11.0mph /  17.7km/h 69% 0.00in /  0mm meteobridge W/m2
09:48 66.2 °F /  19 °C 55.8 °F /  13.2 °C 29.67in /  1004.6hPa North 4.0mph /  6.4km/h 12.0mph /  19.3km/h 69% 0.00in /  0mm meteobridge W/m2
09:55 66.7 °F /  19.3 °C 55.8 °F /  13.2 °C 29.67in /  1004.6hPa NNE 2.9mph /  4.7km/h 11.0mph /  17.7km/h 68% 0.00in /  0mm meteobridge W/m2
10:01 67.6 °F /  19.8 °C 55.9 °F /  13.3 °C 29.67in /  1004.6hPa NNE 4.9mph /  7.9km/h 10.0mph /  16.1km/h 66% 0.00in /  0mm meteobridge W/m2
10:07 68.4 °F /  20.2 °C 55.8 °F /  13.2 °C 29.68in /  1005hPa NNE 4.0mph /  6.4km/h 10.0mph /  16.1km/h 64% 0.00in /  0mm meteobridge W/m2
10:13 69.1 °F /  20.6 °C 56.5 °F /  13.6 °C 29.68in /  1005hPa NNE 6.9mph /  11.1km/h 11.0mph /  17.7km/h 64% 0.00in /  0mm meteobridge W/m2
10:19 68.7 °F /  20.4 °C 55.6 °F /  13.1 °C 29.68in /  1005hPa NNE 6.0mph /  9.7km/h 13.0mph /  20.9km/h 63% 0.00in /  0mm meteobridge W/m2
10:25 69.3 °F /  20.7 °C 56.1 °F /  13.4 °C 29.67in /  1004.6hPa NNE 4.0mph /  6.4km/h 7.0mph /  11.3km/h 63% 0.00in /  0mm meteobridge W/m2
10:31 69.4 °F /  20.8 °C 56.3 °F /  13.5 °C 29.67in /  1004.6hPa North 4.9mph /  7.9km/h 12.0mph /  19.3km/h 63% 0.00in /  0mm meteobridge W/m2
10:37 70.0 °F /  21.1 °C 56.8 °F /  13.8 °C 29.67in /  1004.6hPa North 6.0mph /  9.7km/h 10.0mph /  16.1km/h 63% 0.00in /  0mm meteobridge W/m2
10:48 70.0 °F /  21.1 °C 56.3 °F /  13.5 °C 29.67in /  1004.6hPa North 10.1mph /  16.3km/h 14.0mph /  22.5km/h 62% 0.00in /  0mm meteobridge W/m2
10:54 69.4 °F /  20.8 °C 56.3 °F /  13.5 °C 29.67in /  1004.6hPa NNE 4.0mph /  6.4km/h 10.0mph /  16.1km/h 63% 0.00in /  0mm meteobridge W/m2
11:00 70.0 °F /  21.1 °C 56.3 °F /  13.5 °C 29.67in /  1004.6hPa NNW 12.1mph /  19.5km/h 15.0mph /  24.1km/h 62% 0.00in /  0mm meteobridge W/m2
11:06 70.0 °F /  21.1 °C 55.9 °F /  13.3 °C 29.67in /  1004.6hPa North 2.9mph /  4.7km/h 12.0mph /  19.3km/h 61% 0.00in /  0mm meteobridge W/m2
11:12 71.1 °F /  21.7 °C 56.5 °F /  13.6 °C 29.66in /  1004.3hPa North 12.1mph /  19.5km/h 12.1mph /  19.5km/h 60% 0.00in /  0mm meteobridge W/m2
11:20 71.2 °F /  21.8 °C 56.7 °F /  13.7 °C 29.66in /  1004.3hPa North 4.0mph /  6.4km/h 7.0mph /  11.3km/h 60% 0.00in /  0mm meteobridge W/m2
11:26 71.8 °F /  22.1 °C 57.2 °F /  14 °C 29.66in /  1004.3hPa NNW 11.0mph /  17.7km/h 13.0mph /  20.9km/h 60% 0.00in /  0mm meteobridge W/m2
11:32 71.6 °F /  22 °C 56.5 °F /  13.6 °C 29.65in /  1003.9hPa NNE 6.9mph /  11.1km/h 12.0mph /  19.3km/h 59% 0.00in /  0mm meteobridge W/m2
11:38 71.1 °F /  21.7 °C 55.6 °F /  13.1 °C 29.65in /  1003.9hPa NNW 11.0mph /  17.7km/h 15.0mph /  24.1km/h 58% 0.00in /  0mm meteobridge W/m2
11:45 71.4 °F /  21.9 °C 55.4 °F /  13 °C 29.65in /  1003.9hPa NNE 11.0mph /  17.7km/h 14.0mph /  22.5km/h 57% 0.00in /  0mm meteobridge W/m2
11:51 71.4 °F /  21.9 °C 55.4 °F /  13 °C 29.65in /  1003.9hPa NNE 4.9mph /  7.9km/h 12.0mph /  19.3km/h 57% 0.00in /  0mm meteobridge W/m2
11:57 71.6 °F /  22 °C 56.1 °F /  13.4 °C 29.65in /  1003.9hPa NE 2.0mph /  3.2km/h 10.0mph /  16.1km/h 58% 0.00in /  0mm meteobridge W/m2
12:03 72.9 °F /  22.7 °C 56.3 °F /  13.5 °C 29.65in /  1003.9hPa NE 6.0mph /  9.7km/h 11.0mph /  17.7km/h 56% 0.00in /  0mm meteobridge W/m2
12:09 73.2 °F /  22.9 °C 56.7 °F /  13.7 °C 29.64in /  1003.6hPa NE 6.9mph /  11.1km/h 16.0mph /  25.7km/h 56% 0.00in /  0mm meteobridge W/m2
12:16 73.6 °F /  23.1 °C 55.9 °F /  13.3 °C 29.64in /  1003.6hPa North 2.9mph /  4.7km/h 6.0mph /  9.7km/h 54% 0.00in /  0mm meteobridge W/m2
12:22 73.9 °F /  23.3 °C 55.8 °F /  13.2 °C 29.63in /  1003.3hPa NE 6.9mph /  11.1km/h 7.0mph /  11.3km/h 53% 0.00in /  0mm meteobridge W/m2
12:28 74.7 °F /  23.7 °C 55.9 °F /  13.3 °C 29.63in /  1003.3hPa North 10.1mph /  16.3km/h 14.0mph /  22.5km/h 52% 0.00in /  0mm meteobridge W/m2
12:34 73.9 °F /  23.3 °C 55.2 °F /  12.9 °C 29.63in /  1003.3hPa NNE 15.0mph /  24.1km/h 16.0mph /  25.7km/h 52% 0.00in /  0mm meteobridge W/m2
12:40 73.9 °F /  23.3 °C 55.2 °F /  12.9 °C 29.63in /  1003.3hPa NNE 8.1mph /  13km/h 8.1mph /  13km/h 52% 0.00in /  0mm meteobridge W/m2
12:46 75.6 °F /  24.2 °C 55.6 °F /  13.1 °C 29.63in /  1003.3hPa North 10.1mph /  16.3km/h 17.0mph /  27.4km/h 50% 0.00in /  0mm meteobridge W/m2
12:52 73.8 °F /  23.2 °C 54.5 °F /  12.5 °C 29.63in /  1003.3hPa NNE 6.9mph /  11.1km/h 11.0mph /  17.7km/h 51% 0.00in /  0mm meteobridge W/m2
12:58 72.7 °F /  22.6 °C 54.0 °F /  12.2 °C 29.63in /  1003.3hPa NNE 6.0mph /  9.7km/h 12.0mph /  19.3km/h 52% 0.00in /  0mm meteobridge W/m2
13:04 72.1 °F /  22.3 °C 54.1 °F /  12.3 °C 29.63in /  1003.3hPa NNE 4.9mph /  7.9km/h 12.0mph /  19.3km/h 53% 0.00in /  0mm meteobridge W/m2
13:10 72.1 °F /  22.3 °C 54.1 °F /  12.3 °C 29.63in /  1003.3hPa NNW 4.0mph /  6.4km/h 11.0mph /  17.7km/h 53% 0.00in /  0mm meteobridge W/m2
13:16 72.0 °F /  22.2 °C 54.0 °F /  12.2 °C 29.63in /  1003.3hPa NNW 0.9mph /  1.4km/h 4.0mph /  6.4km/h 53% 0.00in /  0mm meteobridge W/m2
13:23 72.0 °F /  22.2 °C 54.0 °F /  12.2 °C 29.63in /  1003.3hPa NNE 2.0mph /  3.2km/h 10.0mph /  16.1km/h 53% 0.00in /  0mm meteobridge W/m2
13:29 72.0 °F /  22.2 °C 53.4 °F /  11.9 °C 29.62in /  1002.9hPa NNE 6.9mph /  11.1km/h 10.0mph /  16.1km/h 52% 0.00in /  0mm meteobridge W/m2
13:35 72.1 °F /  22.3 °C 53.6 °F /  12 °C 29.62in /  1002.9hPa NNW 6.0mph /  9.7km/h 6.0mph /  9.7km/h 52% 0.00in /  0mm meteobridge W/m2
13:41 72.1 °F /  22.3 °C 53.1 °F /  11.7 °C 29.62in /  1002.9hPa NNE 4.9mph /  7.9km/h 13.0mph /  20.9km/h 51% 0.00in /  0mm meteobridge W/m2
13:47 72.3 °F /  22.4 °C 53.8 °F /  12.1 °C 29.62in /  1002.9hPa NNE 2.0mph /  3.2km/h 9.0mph /  14.5km/h 52% 0.00in /  0mm meteobridge W/m2
13:53 72.3 °F /  22.4 °C 54.7 °F /  12.6 °C 29.62in /  1002.9hPa NE 4.0mph /  6.4km/h 7.0mph /  11.3km/h 54% 0.00in /  0mm meteobridge W/m2
14:00 72.0 °F /  22.2 °C 52.9 °F /  11.6 °C 29.61in /  1002.6hPa North 10.1mph /  16.3km/h 12.0mph /  19.3km/h 51% 0.00in /  0mm meteobridge W/m2
14:06 71.1 °F /  21.7 °C 53.6 °F /  12 °C 29.61in /  1002.6hPa NNW 8.9mph /  14.3km/h 16.0mph /  25.7km/h 54% 0.00in /  0mm meteobridge W/m2
14:12 70.3 °F /  21.3 °C 51.4 °F /  10.8 °C 29.61in /  1002.6hPa NNW 10.1mph /  16.3km/h 16.0mph /  25.7km/h 51% 0.00in /  0mm meteobridge W/m2
14:18 70.3 °F /  21.3 °C 50.9 °F /  10.5 °C 29.60in /  1002.3hPa North 8.9mph /  14.3km/h 15.0mph /  24.1km/h 50% 0.00in /  0mm meteobridge W/m2
14:24 70.3 °F /  21.3 °C 52.9 °F /  11.6 °C 29.61in /  1002.6hPa SSW 6.0mph /  9.7km/h 6.0mph /  9.7km/h 54% 0.00in /  0mm meteobridge W/m2
14:30 69.4 °F /  20.8 °C 54.9 °F /  12.7 °C 29.61in /  1002.6hPa ESE 2.9mph /  4.7km/h 11.0mph /  17.7km/h 60% 0.00in /  0mm meteobridge W/m2
14:36 68.7 °F /  20.4 °C 55.6 °F /  13.1 °C 29.60in /  1002.3hPa SE 4.0mph /  6.4km/h 8.0mph /  12.9km/h 63% 0.00in /  0mm meteobridge W/m2
14:42 68.2 °F /  20.1 °C 55.9 °F /  13.3 °C 29.60in /  1002.3hPa SE 6.0mph /  9.7km/h 7.0mph /  11.3km/h 65% 0.00in /  0mm meteobridge W/m2
14:48 67.6 °F /  19.8 °C 56.3 °F /  13.5 °C 29.60in /  1002.3hPa SE 4.0mph /  6.4km/h 4.0mph /  6.4km/h 67% 0.00in /  0mm meteobridge W/m2
14:54 67.1 °F /  19.5 °C 55.8 °F /  13.2 °C 29.60in /  1002.3hPa Calm   3.0mph /  4.8km/h 67% 0.00in /  0mm meteobridge W/m2
15:01 66.7 °F /  19.3 °C 55.0 °F /  12.8 °C 29.60in /  1002.3hPa NNE 4.9mph /  7.9km/h 9.0mph /  14.5km/h 66% 0.00in /  0mm meteobridge W/m2
15:07 66.0 °F /  18.9 °C 55.2 °F /  12.9 °C 29.60in /  1002.3hPa Calm   4.0mph /  6.4km/h 68% 0.00in /  0mm meteobridge W/m2
15:13 66.2 °F /  19 °C 56.1 °F /  13.4 °C 29.60in /  1002.3hPa NNE 2.0mph /  3.2km/h 2.0mph /  3.2km/h 70% 0.00in /  0mm meteobridge W/m2
15:19 66.6 °F /  19.2 °C 56.1 °F /  13.4 °C 29.61in /  1002.6hPa NNE 0.9mph /  1.4km/h 3.0mph /  4.8km/h 69% 0.00in /  0mm meteobridge W/m2
15:25 67.1 °F /  19.5 °C 56.7 °F /  13.7 °C 29.61in /  1002.6hPa Calm   3.0mph /  4.8km/h 69% 0.00in /  0mm meteobridge W/m2
15:32 67.6 °F /  19.8 °C 57.0 °F /  13.9 °C 29.61in /  1002.6hPa Calm   2.0mph /  3.2km/h 69% 0.00in /  0mm meteobridge W/m2
15:38 67.8 °F /  19.9 °C 56.5 °F /  13.6 °C 29.61in /  1002.6hPa East 4.9mph /  7.9km/h 6.0mph /  9.7km/h 67% 0.00in /  0mm meteobridge W/m2
15:44 67.8 °F /  19.9 °C 57.7 °F /  14.3 °C 29.61in /  1002.6hPa SSE 2.0mph /  3.2km/h 4.0mph /  6.4km/h 70% 0.00in /  0mm meteobridge W/m2
15:50 67.5 °F /  19.7 °C 57.7 °F /  14.3 °C 29.61in /  1002.6hPa SSE 2.9mph /  4.7km/h 3.0mph /  4.8km/h 71% 0.00in /  0mm meteobridge W/m2
15:56 66.4 °F /  19.1 °C 56.7 °F /  13.7 °C 29.62in /  1002.9hPa NE 10.1mph /  16.3km/h 13.0mph /  20.9km/h 71% 0.00in /  0mm meteobridge W/m2
16:02 63.5 °F /  17.5 °C 55.8 °F /  13.2 °C 29.62in /  1002.9hPa NE 11.0mph /  17.7km/h 19.0mph /  30.6km/h 76% 0.00in /  0mm meteobridge W/m2
16:08 62.4 °F /  16.9 °C 56.5 °F /  13.6 °C 29.63in /  1003.3hPa North 13.0mph /  20.9km/h 16.0mph /  25.7km/h 81% 0.00in /  0mm meteobridge W/m2
16:14 61.9 °F /  16.6 °C 56.7 °F /  13.7 °C 29.63in /  1003.3hPa NNE 6.9mph /  11.1km/h 13.0mph /  20.9km/h 83% 0.00in /  0mm meteobridge W/m2
16:20 61.9 °F /  16.6 °C 57.0 °F /  13.9 °C 29.63in /  1003.3hPa NNW 8.9mph /  14.3km/h 13.0mph /  20.9km/h 84% 0.00in /  0mm meteobridge W/m2
16:27 62.1 °F /  16.7 °C 56.8 °F /  13.8 °C 29.64in /  1003.6hPa North 6.0mph /  9.7km/h 12.0mph /  19.3km/h 83% 0.00in /  0mm meteobridge W/m2
16:33 62.4 °F /  16.9 °C 56.1 °F /  13.4 °C 29.64in /  1003.6hPa NNW 8.1mph /  13km/h 16.0mph /  25.7km/h 80% 0.00in /  0mm meteobridge W/m2
16:39 62.4 °F /  16.9 °C 55.4 °F /  13 °C 29.63in /  1003.3hPa North 8.1mph /  13km/h 16.0mph /  25.7km/h 78% 0.00in /  0mm meteobridge W/m2
16:45 61.9 °F /  16.6 °C 54.7 °F /  12.6 °C 29.63in /  1003.3hPa North 6.0mph /  9.7km/h 10.0mph /  16.1km/h 77% 0.00in /  0mm meteobridge W/m2
16:51 61.5 °F /  16.4 °C 54.9 °F /  12.7 °C 29.64in /  1003.6hPa North 4.9mph /  7.9km/h 7.0mph /  11.3km/h 79% 0.00in /  0mm meteobridge W/m2
16:57 61.5 °F /  16.4 °C 54.9 °F /  12.7 °C 29.64in /  1003.6hPa NE 6.0mph /  9.7km/h 13.0mph /  20.9km/h 79% 0.00in /  0mm meteobridge W/m2
17:03 61.3 °F /  16.3 °C 55.4 °F /  13 °C 29.64in /  1003.6hPa East 2.0mph /  3.2km/h 7.0mph /  11.3km/h 81% 0.01in /  0.25mm meteobridge W/m2
17:09 61.3 °F /  16.3 °C 55.4 °F /  13 °C 29.64in /  1003.6hPa North 4.9mph /  7.9km/h 6.0mph /  9.7km/h 81% 0.01in /  0.25mm meteobridge W/m2
17:16 61.3 °F /  16.3 °C 54.9 °F /  12.7 °C 29.65in /  1003.9hPa North 2.9mph /  4.7km/h 5.0mph /  8km/h 79% 0.01in /  0.25mm meteobridge W/m2
17:22 61.3 °F /  16.3 °C 55.0 °F /  12.8 °C 29.64in /  1003.6hPa North 2.0mph /  3.2km/h 5.0mph /  8km/h 80% 0.01in /  0.25mm meteobridge W/m2
17:28 61.5 °F /  16.4 °C 55.2 °F /  12.9 °C 29.64in /  1003.6hPa NNW 4.9mph /  7.9km/h 7.0mph /  11.3km/h 80% 0.01in /  0.25mm meteobridge W/m2
17:34 61.7 °F /  16.5 °C 55.0 °F /  12.8 °C 29.65in /  1003.9hPa NNW 2.9mph /  4.7km/h 7.0mph /  11.3km/h 79% 0.01in /  0.25mm meteobridge W/m2
17:40 62.1 °F /  16.7 °C 55.4 °F /  13 °C 29.64in /  1003.6hPa NNW 2.0mph /  3.2km/h 6.0mph /  9.7km/h 79% 0.01in /  0.25mm meteobridge W/m2
17:46 62.2 °F /  16.8 °C 55.2 °F /  12.9 °C 29.65in /  1003.9hPa North 2.9mph /  4.7km/h 6.0mph /  9.7km/h 78% 0.00in /  0mm meteobridge W/m2
17:52 62.2 °F /  16.8 °C 55.2 °F /  12.9 °C 29.65in /  1003.9hPa NNE 0.9mph /  1.4km/h 4.0mph /  6.4km/h 78% 0.00in /  0mm meteobridge W/m2
17:59 62.4 °F /  16.9 °C 55.4 °F /  13 °C 29.65in /  1003.9hPa NNE 2.9mph /  4.7km/h 5.0mph /  8km/h 78% 0.00in /  0mm meteobridge W/m2
18:05 62.6 °F /  17 °C 55.6 °F /  13.1 °C 29.65in /  1003.9hPa NNE 0.9mph /  1.4km/h 3.0mph /  4.8km/h 78% 0.00in /  0mm meteobridge W/m2
18:11 62.8 °F /  17.1 °C 55.8 °F /  13.2 °C 29.66in /  1004.3hPa NNE 2.9mph /  4.7km/h 3.0mph /  4.8km/h 78% 0.00in /  0mm meteobridge W/m2
18:17 63.1 °F /  17.3 °C 55.8 °F /  13.2 °C 29.66in /  1004.3hPa NNE 4.0mph /  6.4km/h 4.0mph /  6.4km/h 77% 0.00in /  0mm meteobridge W/m2
18:23 63.1 °F /  17.3 °C 55.4 °F /  13 °C 29.66in /  1004.3hPa NNE 0.9mph /  1.4km/h 2.0mph /  3.2km/h 76% 0.00in /  0mm meteobridge W/m2
18:29 63.5 °F /  17.5 °C 55.8 °F /  13.2 °C 29.67in /  1004.6hPa Calm   2.0mph /  3.2km/h 76% 0.00in /  0mm meteobridge W/m2
18:35 63.7 °F /  17.6 °C 55.6 °F /  13.1 °C 29.67in /  1004.6hPa Calm   3.0mph /  4.8km/h 75% 0.00in /  0mm meteobridge W/m2
18:42 63.9 °F /  17.7 °C 55.8 °F /  13.2 °C 29.67in /  1004.6hPa East 0.9mph /  1.4km/h 4.0mph /  6.4km/h 75% 0.00in /  0mm meteobridge W/m2
18:48 63.9 °F /  17.7 °C 56.1 °F /  13.4 °C 29.68in /  1005hPa South 2.9mph /  4.7km/h 5.0mph /  8km/h 76% 0.00in /  0mm meteobridge W/m2
18:54 63.7 °F /  17.6 °C 56.3 °F /  13.5 °C 29.68in /  1005hPa South 4.0mph /  6.4km/h 9.0mph /  14.5km/h 77% 0.00in /  0mm meteobridge W/m2
19:00 63.3 °F /  17.4 °C 55.9 °F /  13.3 °C 29.68in /  1005hPa South 2.9mph /  4.7km/h 4.0mph /  6.4km/h 77% 0.00in /  0mm meteobridge W/m2
19:06 63.3 °F /  17.4 °C 55.9 °F /  13.3 °C 29.68in /  1005hPa South 2.0mph /  3.2km/h 2.0mph /  3.2km/h 77% 0.00in /  0mm meteobridge W/m2
19:13 63.3 °F /  17.4 °C 55.9 °F /  13.3 °C 29.69in /  1005.3hPa South 2.0mph /  3.2km/h -999.0mph /  -1607.7km/h 77% 0.00in /  0mm meteobridge W/m2
19:20 63.3 °F /  17.4 °C 55.9 °F /  13.3 °C 29.70in /  1005.6hPa North -999.9mph /  -1609.1km/h -999.0mph /  -1607.7km/h 77% 0.00in /  0mm meteobridge W/m2
Regenstein, Windhoek, Namibia
Compliments of Weather Underground - 2.5 mb